RORT(METAR)
10/16 16:00
RORT 160700Z 02012KT 8000 FEW022 SCT043 27/23 Q1014 RMK A2996=
戻る
トップページへ戻る
IMOC Co,.Ltd.